createdAt,value
2022-10-01T00:01:15.385Z,13.21
2022-10-01T00:03:43.075Z,13.25
2022-10-01T00:06:14.807Z,13.31
2022-10-01T00:08:42.766Z,13.29
2022-10-01T00:11:09.308Z,13.30
2022-10-01T00:13:36.568Z,13.33
2022-10-01T00:16:07.904Z,13.34
2022-10-01T00:18:39.146Z,13.40
2022-10-01T00:21:10.738Z,13.39
2022-10-01T00:23:37.702Z,13.40
2022-10-01T00:29:10.512Z,13.46
2022-10-01T00:31:37.752Z,13.42
2022-10-01T00:34:06.236Z,13.40
2022-10-01T00:36:34.362Z,13.43
2022-10-01T00:39:01.103Z,13.40
2022-10-01T00:41:33.688Z,13.38
2022-10-01T00:44:02.223Z,13.38
2022-10-01T00:46:40.881Z,13.41
2022-10-01T00:49:28.021Z,13.49
2022-10-01T00:52:01.000Z,13.56
2022-10-01T00:54:43.553Z,13.57
2022-10-01T00:57:10.576Z,13.61
2022-10-01T00:59:38.583Z,13.62
2022-10-01T01:02:05.339Z,13.59
2022-10-01T01:04:32.737Z,13.63
2022-10-01T01:07:00.905Z,13.61
2022-10-01T01:09:38.394Z,13.60
2022-10-01T01:12:05.091Z,13.64
2022-10-01T01:14:31.714Z,13.63
2022-10-01T01:17:01.564Z,13.64
2022-10-01T01:19:31.193Z,13.66
2022-10-01T01:22:02.444Z,13.67
2022-10-01T01:24:47.722Z,13.68
2022-10-01T01:27:24.742Z,13.69
2022-10-01T01:30:00.886Z,13.67
2022-10-01T01:32:31.041Z,13.59
2022-10-01T01:35:02.391Z,13.56
2022-10-01T01:37:34.514Z,13.52
2022-10-01T01:40:03.094Z,13.42
2022-10-01T01:42:33.412Z,13.39
2022-10-01T01:45:03.477Z,13.36
2022-10-01T01:47:33.502Z,13.30
2022-10-01T01:50:02.886Z,13.37
2022-10-01T01:52:30.434Z,13.25
2022-10-01T01:54:57.614Z,13.23
2022-10-01T01:57:24.441Z,13.29
2022-10-01T01:59:51.285Z,13.33
2022-10-01T02:02:26.280Z,13.25
2022-10-01T02:04:56.260Z,13.26
2022-10-01T02:07:38.445Z,13.19
2022-10-01T02:10:24.714Z,13.21
2022-10-01T02:12:52.170Z,13.21
2022-10-01T02:15:19.020Z,13.17
2022-10-01T02:18:03.366Z,13.19
2022-10-01T02:20:33.285Z,13.23
2022-10-01T02:23:03.698Z,13.28
2022-10-01T02:25:34.775Z,13.31
2022-10-01T02:28:03.869Z,13.35
2022-10-01T02:30:32.131Z,13.39
2022-10-01T02:33:00.591Z,13.32
2022-10-01T02:35:28.953Z,13.30
2022-10-01T02:37:56.893Z,13.31
2022-10-01T02:40:28.801Z,13.33
2022-10-01T02:43:28.340Z,13.25
2022-10-01T02:45:58.701Z,13.27
2022-10-01T02:48:27.515Z,13.16
2022-10-01T02:50:58.938Z,13.23
2022-10-01T02:53:38.161Z,13.21
2022-10-01T02:56:05.754Z,13.23
2022-10-01T02:58:32.740Z,13.20
2022-10-01T03:00:59.711Z,13.22
2022-10-01T03:03:27.383Z,13.27
2022-10-01T03:05:54.287Z,13.21
2022-10-01T03:08:21.009Z,13.20
2022-10-01T03:10:48.783Z,13.24
2022-10-01T03:13:16.096Z,13.25
2022-10-01T03:15:45.743Z,13.18
2022-10-01T03:18:12.689Z,13.21
2022-10-01T03:20:39.685Z,13.27
2022-10-01T03:23:06.448Z,13.28
2022-10-01T03:25:33.636Z,13.25
2022-10-01T03:28:00.972Z,13.23
2022-10-01T03:30:30.827Z,13.25
2022-10-01T03:32:57.594Z,13.28
2022-10-01T03:35:25.093Z,13.32
2022-10-01T03:37:52.033Z,13.37
2022-10-01T03:40:18.850Z,13.36
2022-10-01T03:42:45.729Z,13.36
2022-10-01T03:45:13.290Z,13.38
2022-10-01T03:47:40.189Z,13.37
2022-10-01T03:50:07.581Z,13.38
2022-10-01T03:52:34.431Z,13.42
2022-10-01T03:55:01.224Z,13.39
2022-10-01T03:57:30.166Z,13.31
2022-10-01T03:59:56.822Z,13.29
2022-10-01T04:02:24.444Z,13.29
2022-10-01T04:04:53.688Z,13.33
2022-10-01T04:07:20.973Z,13.35
2022-10-01T04:09:47.684Z,13.33
2022-10-01T04:12:14.475Z,13.31
2022-10-01T04:14:41.206Z,13.32
2022-10-01T04:17:07.946Z,13.29
2022-10-01T04:19:34.557Z,13.25
2022-10-01T04:22:02.516Z,13.20
2022-10-01T04:24:29.489Z,13.18
2022-10-01T04:26:56.326Z,13.23
2022-10-01T04:29:23.110Z,13.13
2022-10-01T04:32:14.131Z,13.11
2022-10-01T04:34:53.026Z,13.07
2022-10-01T04:37:20.265Z,13.03
2022-10-01T04:39:47.817Z,13.03
2022-10-01T04:42:14.887Z,13.06
2022-10-01T04:44:41.819Z,13.08
2022-10-01T04:47:09.079Z,13.10
2022-10-01T04:49:36.188Z,13.10
2022-10-01T04:52:03.632Z,13.07
2022-10-01T04:54:30.379Z,13.09
2022-10-01T04:56:58.362Z,13.10
2022-10-01T04:59:25.961Z,13.10
2022-10-01T05:01:53.219Z,13.07
2022-10-01T05:04:21.083Z,13.13
2022-10-01T05:06:47.923Z,13.14
2022-10-01T05:09:14.740Z,13.16
2022-10-01T05:11:41.320Z,13.19
2022-10-01T05:14:08.673Z,13.24
2022-10-01T05:16:35.374Z,13.30
2022-10-01T05:19:02.243Z,13.33
2022-10-01T05:21:28.874Z,13.36
2022-10-01T05:23:55.885Z,13.38
2022-10-01T05:27:37.818Z,13.42
2022-10-01T05:30:05.539Z,13.43
2022-10-01T05:32:32.647Z,13.47
2022-10-01T05:35:00.799Z,13.52
2022-10-01T05:37:27.407Z,13.56
2022-10-01T05:39:54.190Z,13.61
2022-10-01T05:42:20.849Z,13.68
2022-10-01T05:45:12.893Z,13.71
2022-10-01T05:47:42.411Z,13.74
2022-10-01T05:50:09.615Z,13.79
2022-10-01T05:52:36.240Z,13.82
2022-10-01T05:55:02.953Z,13.83
2022-10-01T05:57:30.490Z,13.88
2022-10-01T05:59:58.061Z,13.90
2022-10-01T06:02:24.750Z,13.93
2022-10-01T06:04:51.732Z,13.97
2022-10-01T06:07:21.093Z,14.02
2022-10-01T06:09:47.764Z,14.07
2022-10-01T06:12:18.969Z,14.09
2022-10-01T06:14:46.497Z,14.11
2022-10-01T06:17:13.657Z,14.16
2022-10-01T06:19:40.281Z,14.20
2022-10-01T06:22:07.647Z,14.24
2022-10-01T06:24:34.447Z,14.25
2022-10-01T06:27:01.254Z,14.29
2022-10-01T06:29:30.876Z,14.35
2022-10-01T06:31:57.806Z,14.42
2022-10-01T06:34:27.158Z,14.48
2022-10-01T06:36:53.783Z,14.52
2022-10-01T06:39:20.518Z,14.55
2022-10-01T06:41:50.187Z,14.56
2022-10-01T06:44:17.371Z,14.61
2022-10-01T06:46:44.271Z,14.66
2022-10-01T06:49:11.587Z,14.67
2022-10-01T06:51:58.642Z,14.71
2022-10-01T06:54:27.371Z,14.75
2022-10-01T06:56:53.984Z,14.81
2022-10-01T06:59:20.606Z,14.88
2022-10-01T07:01:52.923Z,14.92
2022-10-01T07:04:22.113Z,14.98
2022-10-01T07:06:48.770Z,15.05
2022-10-01T07:09:15.471Z,15.10
2022-10-01T07:11:42.932Z,15.17
2022-10-01T07:14:09.742Z,15.22
2022-10-01T07:16:40.225Z,15.33
2022-10-01T07:19:07.001Z,15.41
2022-10-01T07:21:33.808Z,15.49
2022-10-01T07:24:00.686Z,15.55
2022-10-01T07:26:27.387Z,15.58
2022-10-01T07:28:55.346Z,15.47
2022-10-01T07:31:24.253Z,15.36
2022-10-01T07:33:57.113Z,15.40
2022-10-01T07:36:24.003Z,15.50
2022-10-01T07:38:51.746Z,15.61
2022-10-01T07:41:18.466Z,15.70
2022-10-01T07:43:46.789Z,15.74
2022-10-01T07:46:13.553Z,15.83
2022-10-01T07:48:41.261Z,15.97
2022-10-01T07:51:08.171Z,16.12
2022-10-01T07:53:35.017Z,16.28
2022-10-01T07:56:02.411Z,16.40
2022-10-01T07:58:29.424Z,16.61
2022-10-01T08:00:58.640Z,16.58
2022-10-01T08:03:25.541Z,16.74
2022-10-01T08:05:53.744Z,17.04
2022-10-01T08:08:20.701Z,17.35
2022-10-01T08:10:47.644Z,17.63
2022-10-01T08:13:15.984Z,17.87
2022-10-01T08:16:09.782Z,18.09
2022-10-01T08:18:38.189Z,18.39
2022-10-01T08:21:04.928Z,18.54
2022-10-01T08:23:34.533Z,18.85
2022-10-01T08:26:02.378Z,18.99
2022-10-01T08:28:30.068Z,19.07
2022-10-01T08:30:57.372Z,19.05
2022-10-01T08:33:24.087Z,18.92
2022-10-01T08:35:51.013Z,18.83
2022-10-01T08:38:19.786Z,18.68
2022-10-01T08:40:48.297Z,18.41
2022-10-01T08:43:14.942Z,18.20
2022-10-01T08:45:41.915Z,18.24
2022-10-01T08:48:17.250Z,18.48
2022-10-01T08:50:55.090Z,18.63
2022-10-01T08:53:28.715Z,18.82
2022-10-01T08:55:55.889Z,18.94
2022-10-01T08:58:26.907Z,18.94
2022-10-01T09:01:18.654Z,18.97
2022-10-01T09:03:45.267Z,18.88
2022-10-01T09:06:23.583Z,18.87
2022-10-01T09:08:54.541Z,18.85
2022-10-01T09:11:27.416Z,18.51
2022-10-01T09:14:12.402Z,18.28
2022-10-01T09:16:47.593Z,18.22
2022-10-01T09:19:20.579Z,18.15
2022-10-01T09:21:50.149Z,18.10
2022-10-01T09:24:24.987Z,18.05
2022-10-01T09:26:51.929Z,18.02
2022-10-01T09:29:32.785Z,17.88
2022-10-01T09:32:02.097Z,17.76
2022-10-01T09:34:37.580Z,17.69
2022-10-01T09:37:08.629Z,17.67
2022-10-01T09:39:40.779Z,17.59
2022-10-01T09:42:07.597Z,17.44
2022-10-01T09:44:34.590Z,17.38
2022-10-01T09:47:01.315Z,17.31
2022-10-01T09:49:37.227Z,17.30
2022-10-01T09:52:10.734Z,17.15
2022-10-01T09:54:43.222Z,16.98
2022-10-01T09:57:12.627Z,16.82
2022-10-01T09:59:50.016Z,16.83
2022-10-01T10:02:24.757Z,16.77
2022-10-01T10:05:00.864Z,16.74
2022-10-01T10:07:29.273Z,16.88
2022-10-01T10:09:56.112Z,17.02
2022-10-01T10:12:28.313Z,17.09
2022-10-01T10:14:57.031Z,17.13
2022-10-01T10:17:25.441Z,17.15
2022-10-01T10:19:52.653Z,17.19
2022-10-01T10:22:25.130Z,17.26
2022-10-01T10:24:55.170Z,17.29
2022-10-01T10:27:29.737Z,17.32
2022-10-01T10:30:07.372Z,17.34
2022-10-01T10:32:34.883Z,17.47
2022-10-01T10:35:05.567Z,17.51
2022-10-01T10:37:36.497Z,17.60
2022-10-01T10:40:05.093Z,17.67
2022-10-01T10:42:33.733Z,17.71
2022-10-01T10:45:04.001Z,17.77
2022-10-01T10:47:56.238Z,17.77
2022-10-01T10:50:31.881Z,17.78
2022-10-01T10:53:25.803Z,17.86
2022-10-01T10:55:57.391Z,17.92
2022-10-01T10:58:25.649Z,17.94
2022-10-01T11:00:53.663Z,17.98
2022-10-01T11:03:22.419Z,18.09
2022-10-01T11:05:52.218Z,18.24
2022-10-01T11:08:20.974Z,18.37
2022-10-01T11:10:50.116Z,18.45
2022-10-01T11:13:35.499Z,18.52
2022-10-01T11:16:21.074Z,18.42
2022-10-01T11:19:07.936Z,18.36
2022-10-01T11:21:34.607Z,18.54
2022-10-01T11:24:04.757Z,18.71
2022-10-01T11:26:38.184Z,18.74
2022-10-01T11:29:35.666Z,18.70
2022-10-01T11:32:03.272Z,18.78
2022-10-01T11:34:37.899Z,18.94
2022-10-01T11:37:17.368Z,19.02
2022-10-01T11:39:44.616Z,19.01
2022-10-01T11:45:26.287Z,18.93
2022-10-01T11:47:55.321Z,19.03
2022-10-01T11:50:25.710Z,19.12
2022-10-01T11:53:13.778Z,19.05
2022-10-01T11:56:07.352Z,19.06
2022-10-01T11:58:52.532Z,19.04
2022-10-01T12:01:19.693Z,19.15
2022-10-01T12:03:53.824Z,19.06
2022-10-01T12:06:30.503Z,18.88
2022-10-01T12:09:04.934Z,18.87
2022-10-01T12:11:35.433Z,18.81
2022-10-01T12:14:04.509Z,18.71
2022-10-01T12:16:54.484Z,18.60
2022-10-01T12:19:26.693Z,18.68
2022-10-01T12:21:57.166Z,18.79
2022-10-01T12:24:28.945Z,18.86
2022-10-01T12:27:11.916Z,18.92
2022-10-01T12:29:57.288Z,19.01
2022-10-01T12:32:38.187Z,19.14
2022-10-01T12:35:26.008Z,19.30
2022-10-01T12:37:55.748Z,19.40
2022-10-01T12:40:22.508Z,19.50
2022-10-01T12:43:14.258Z,19.53
2022-10-01T12:45:44.413Z,19.64
2022-10-01T12:48:21.307Z,19.68
2022-10-01T12:50:48.534Z,19.74
2022-10-01T12:53:34.287Z,19.75
2022-10-01T12:56:36.871Z,19.73
2022-10-01T12:59:10.082Z,19.39
2022-10-01T13:01:36.971Z,19.32
2022-10-01T13:04:12.608Z,19.35
2022-10-01T13:06:55.802Z,19.30
2022-10-01T13:09:33.699Z,19.18
2022-10-01T13:12:09.298Z,19.00
2022-10-01T13:14:36.899Z,19.00
2022-10-01T13:17:18.551Z,18.87
2022-10-01T13:20:08.016Z,18.72
2022-10-01T13:22:38.324Z,18.70
2022-10-01T13:25:23.607Z,18.70
2022-10-01T13:27:53.256Z,18.66
2022-10-01T13:30:24.016Z,18.62
2022-10-01T13:32:54.213Z,18.54
2022-10-01T13:35:24.166Z,18.51
2022-10-01T13:37:50.996Z,18.41
2022-10-01T13:40:23.309Z,18.38
2022-10-01T13:42:51.679Z,18.34
2022-10-01T13:48:11.861Z,18.37
2022-10-01T13:50:39.726Z,18.35
2022-10-01T13:53:17.564Z,18.39
2022-10-01T13:55:45.433Z,18.39
2022-10-01T13:58:23.810Z,18.34
2022-10-01T14:00:55.435Z,18.35
2022-10-01T14:03:34.683Z,18.34
2022-10-01T14:12:04.249Z,18.17
2022-10-01T14:14:54.681Z,18.01
2022-10-01T14:17:24.349Z,18.08
2022-10-01T14:19:51.217Z,18.00
2022-10-01T14:22:33.502Z,17.96
2022-10-01T14:25:09.278Z,17.96
2022-10-01T14:28:01.794Z,17.97
2022-10-01T14:30:34.658Z,17.96
2022-10-01T14:33:25.134Z,17.96
2022-10-01T14:36:10.631Z,17.96
2022-10-01T14:38:38.144Z,17.92
2022-10-01T14:41:04.979Z,17.89
2022-10-01T14:43:33.104Z,17.89
2022-10-01T14:45:59.914Z,17.89
2022-10-01T14:48:28.924Z,17.90
2022-10-01T14:50:57.581Z,17.94
2022-10-01T14:53:27.171Z,17.88
2022-10-01T14:55:56.170Z,17.79
2022-10-01T14:58:23.164Z,17.80
2022-10-01T15:00:51.489Z,17.81
2022-10-01T15:03:18.433Z,17.75
2022-10-01T15:05:46.302Z,17.71
2022-10-01T15:08:36.545Z,17.62
2022-10-01T15:11:04.932Z,17.54
2022-10-01T15:13:34.953Z,17.44
2022-10-01T15:16:27.696Z,17.35
2022-10-01T15:18:54.444Z,17.27
2022-10-01T15:21:24.892Z,17.24
2022-10-01T15:23:51.712Z,17.19
2022-10-01T15:26:22.583Z,17.10
2022-10-01T15:28:50.474Z,17.03
2022-10-01T15:31:20.108Z,17.00
2022-10-01T15:34:12.388Z,16.94
2022-10-01T15:36:39.793Z,16.86
2022-10-01T15:39:35.973Z,16.81
2022-10-01T15:42:21.815Z,16.79
2022-10-01T15:44:49.983Z,16.74
2022-10-01T15:47:20.325Z,16.71
2022-10-01T15:50:04.920Z,16.66
2022-10-01T15:52:53.292Z,16.61
2022-10-01T15:55:26.292Z,16.52
2022-10-01T15:58:05.107Z,16.47
2022-10-01T16:00:33.859Z,16.43
2022-10-01T16:03:00.713Z,16.41
2022-10-01T16:05:32.991Z,16.35
2022-10-01T16:07:59.854Z,16.33
2022-10-01T16:10:32.859Z,16.35
2022-10-01T16:12:59.997Z,16.30
2022-10-01T16:15:29.029Z,16.28
2022-10-01T16:20:56.882Z,16.26
2022-10-01T16:23:36.067Z,16.23
2022-10-01T16:26:05.211Z,16.22
2022-10-01T16:28:33.324Z,16.18
2022-10-01T16:31:01.025Z,16.16
2022-10-01T16:33:53.157Z,16.09
2022-10-01T16:36:21.067Z,16.04
2022-10-01T16:38:48.644Z,15.91
2022-10-01T16:41:18.798Z,15.88
2022-10-01T16:43:45.865Z,15.85
2022-10-01T16:46:12.876Z,15.82
2022-10-01T16:48:39.852Z,15.81
2022-10-01T16:51:07.417Z,15.80
2022-10-01T16:53:34.975Z,15.80
2022-10-01T16:56:02.122Z,15.80
2022-10-01T16:58:29.170Z,15.78
2022-10-01T17:00:56.278Z,15.77
2022-10-01T17:03:24.599Z,15.77
2022-10-01T17:05:51.434Z,15.73
2022-10-01T17:08:18.373Z,15.69
2022-10-01T17:10:51.324Z,15.66
2022-10-01T17:13:18.302Z,15.62
2022-10-01T17:15:47.480Z,15.64
2022-10-01T17:18:14.362Z,15.64
2022-10-01T17:20:42.298Z,15.63
2022-10-01T17:23:10.289Z,15.63
2022-10-01T17:25:38.508Z,15.61
2022-10-01T17:28:06.484Z,15.62
2022-10-01T17:30:33.513Z,15.58
2022-10-01T17:33:01.638Z,15.55
2022-10-01T17:35:29.374Z,15.51
2022-10-01T17:37:56.462Z,15.48
2022-10-01T17:40:23.383Z,15.47
2022-10-01T17:42:50.167Z,15.49
2022-10-01T17:45:17.032Z,15.50
2022-10-01T17:47:44.937Z,15.50
2022-10-01T17:50:12.037Z,15.51
2022-10-01T17:52:38.999Z,15.53
2022-10-01T17:55:06.118Z,15.51
2022-10-01T17:57:33.159Z,15.50
2022-10-01T17:59:59.910Z,15.48
2022-10-01T18:02:43.293Z,15.45
2022-10-01T18:05:12.518Z,15.47
2022-10-01T18:07:40.093Z,15.44
2022-10-01T18:10:07.898Z,15.44
2022-10-01T18:12:35.089Z,15.42
2022-10-01T18:15:01.964Z,15.43
2022-10-01T18:17:32.200Z,15.40
2022-10-01T18:19:59.003Z,15.40
2022-10-01T18:22:26.709Z,15.38
2022-10-01T18:24:53.586Z,15.32
2022-10-01T18:27:20.534Z,15.28
2022-10-01T18:29:47.580Z,15.22
2022-10-01T18:32:16.697Z,15.15
2022-10-01T18:34:46.489Z,15.09
2022-10-01T18:37:23.723Z,15.00
2022-10-01T18:39:56.575Z,14.94
2022-10-01T18:42:32.458Z,14.94
2022-10-01T18:45:01.246Z,14.82
2022-10-01T18:47:43.463Z,14.77
2022-10-01T18:50:17.847Z,14.74
2022-10-01T18:52:54.395Z,14.71
2022-10-01T18:55:31.047Z,14.67
2022-10-01T18:58:24.722Z,14.62
2022-10-01T19:01:00.629Z,14.56
2022-10-01T19:03:33.078Z,14.52
2022-10-01T19:06:18.462Z,14.47
2022-10-01T19:08:46.770Z,14.45
2022-10-01T19:11:18.138Z,14.41
2022-10-01T19:13:45.022Z,14.38
2022-10-01T19:16:30.696Z,14.37
2022-10-01T19:19:24.977Z,14.34
2022-10-01T19:22:03.131Z,14.34
2022-10-01T19:24:29.853Z,14.28
2022-10-01T19:27:16.337Z,14.22
2022-10-01T19:29:49.152Z,14.18
2022-10-01T19:32:24.243Z,14.17
2022-10-01T19:35:19.233Z,14.15
2022-10-01T19:38:00.116Z,14.12
2022-10-01T19:40:36.668Z,14.08
2022-10-01T19:45:56.806Z,14.00
2022-10-01T19:48:43.676Z,14.03
2022-10-01T19:51:12.725Z,14.00
2022-10-01T19:53:42.841Z,14.00
2022-10-01T19:56:13.822Z,13.99
2022-10-01T19:58:41.183Z,14.00
2022-10-01T20:01:17.375Z,13.98
2022-10-01T20:03:55.777Z,14.01
2022-10-01T20:06:28.742Z,14.03
2022-10-01T20:09:00.140Z,14.06
2022-10-01T20:11:37.152Z,14.09
2022-10-01T20:14:36.034Z,14.08
2022-10-01T20:17:06.605Z,14.11
2022-10-01T20:19:38.408Z,14.11
2022-10-01T20:22:11.166Z,14.12
2022-10-01T20:24:59.601Z,14.12
2022-10-01T20:27:49.411Z,14.11
2022-10-01T20:30:20.427Z,14.13
2022-10-01T20:32:56.201Z,14.15
2022-10-01T20:36:07.309Z,14.21
2022-10-01T20:38:49.232Z,14.21
2022-10-01T20:41:21.549Z,14.20
2022-10-01T20:43:57.401Z,14.19
2022-10-01T20:46:44.409Z,14.21
2022-10-01T20:49:21.533Z,14.21
2022-10-01T20:51:53.311Z,14.22
2022-10-01T20:54:23.178Z,14.21
2022-10-01T20:56:59.063Z,14.12
2022-10-01T20:59:29.748Z,14.21
2022-10-01T21:02:02.519Z,14.24
2022-10-01T21:04:32.407Z,14.19
2022-10-01T21:07:11.178Z,14.17
2022-10-01T21:09:41.233Z,14.18
2022-10-01T21:12:15.490Z,14.16
2022-10-01T21:14:46.415Z,14.14
2022-10-01T21:17:36.478Z,14.15
2022-10-01T21:20:03.522Z,14.15
2022-10-01T21:22:31.130Z,14.14
2022-10-01T21:25:09.718Z,14.15
2022-10-01T21:27:46.924Z,14.16
2022-10-01T21:30:19.697Z,14.15
2022-10-01T21:32:47.971Z,14.16
2022-10-01T21:35:36.928Z,14.16
2022-10-01T21:38:17.593Z,14.16
2022-10-01T21:41:01.532Z,14.14
2022-10-01T21:43:48.016Z,14.12
2022-10-01T21:46:26.402Z,14.15
2022-10-01T21:49:03.169Z,14.12
2022-10-01T21:51:35.520Z,14.11
2022-10-01T21:54:11.989Z,14.09
2022-10-01T21:57:11.092Z,14.09
2022-10-01T22:00:08.201Z,14.08
2022-10-01T22:02:35.642Z,14.08
2022-10-01T22:05:25.313Z,14.10
2022-10-01T22:07:51.972Z,14.10
2022-10-01T22:10:22.656Z,14.10
2022-10-01T22:12:51.601Z,14.12
2022-10-01T22:15:42.233Z,14.12
2022-10-01T22:18:13.165Z,14.12
2022-10-01T22:20:41.210Z,14.10
2022-10-01T22:23:09.612Z,14.09
2022-10-01T22:25:40.853Z,14.06
2022-10-01T22:28:09.398Z,14.05
2022-10-01T22:30:38.706Z,14.03
2022-10-01T22:33:10.129Z,13.99
2022-10-01T22:35:39.987Z,13.98
2022-10-01T22:38:17.745Z,13.95
2022-10-01T22:41:13.936Z,13.94
2022-10-01T22:43:43.085Z,13.92
2022-10-01T22:46:12.968Z,13.91
2022-10-01T22:48:52.942Z,13.88
2022-10-01T22:51:38.684Z,13.79
2022-10-01T22:54:09.212Z,13.86
2022-10-01T22:56:44.046Z,13.84
2022-10-01T22:59:24.076Z,13.85
2022-10-01T23:01:54.015Z,13.84
2022-10-01T23:04:20.665Z,13.83
2022-10-01T23:06:56.041Z,13.81
2022-10-01T23:09:37.687Z,13.80
2022-10-01T23:12:24.549Z,13.81
2022-10-01T23:15:01.752Z,13.81
2022-10-01T23:17:38.150Z,13.80
2022-10-01T23:20:23.428Z,13.79
2022-10-01T23:23:09.110Z,13.77
2022-10-01T23:25:39.136Z,13.77
2022-10-01T23:28:13.324Z,13.78
2022-10-01T23:30:39.935Z,13.77
2022-10-01T23:33:21.845Z,13.76
2022-10-01T23:35:54.584Z,13.75
2022-10-01T23:38:28.304Z,13.71
2022-10-01T23:40:56.340Z,13.69
2022-10-01T23:43:29.234Z,13.68
2022-10-01T23:46:05.271Z,13.65
2022-10-01T23:48:44.763Z,13.64
2022-10-01T23:51:30.190Z,13.61
2022-10-01T23:54:07.238Z,13.61
2022-10-01T23:56:50.662Z,13.61
2022-10-01T23:59:23.698Z,13.60
